25°C Temp
16°C Dewpoint
57% Humidity
Temperature
8 KM/H
5 MPH
4 KTS
Calm
Due North

Wind Speed
Partly Cloudy
Conditions
Pressure 1018.92 (hPa) - 30.09 (in)
Visibility 6.2 (mi) - 10.0 (km)

Current Conditions
LSZA
Location Lugano 50 (km)
Metar :LSZA 040950Z VRB04KT 9999 FEW055 25/16 Q1019 NOSIG
Sat 4th July 10:50 am

Airport
  Metar Aviation API Data Provided by https://www.checkwx.com/ PHP scripts by weather34.com ©2020